sensor_id;sensor_type;location;lat;lon;timestamp;temperature;humidity
43099;DHT22;28715;51.988;6.020;2022-09-09T00:04:28;17.00;99.50
43099;DHT22;28715;51.988;6.020;2022-09-09T00:10:08;17.10;99.40
43099;DHT22;28715;51.988;6.020;2022-09-09T00:16:43;17.10;99.40
43099;DHT22;28715;51.988;6.020;2022-09-09T00:20:35;17.10;99.60
43099;DHT22;28715;51.988;6.020;2022-09-09T00:22:53;17.10;99.60
43099;DHT22;28715;51.988;6.020;2022-09-09T00:25:35;17.20;99.60
43099;DHT22;28715;51.988;6.020;2022-09-09T00:28:27;17.20;99.60
43099;DHT22;28715;51.988;6.020;2022-09-09T00:30:56;17.10;99.60
43099;DHT22;28715;51.988;6.020;2022-09-09T00:33:26;17.10;99.60
43099;DHT22;28715;51.988;6.020;2022-09-09T00:36:00;17.10;99.70
43099;DHT22;28715;51.988;6.020;2022-09-09T00:38:35;17.10;99.70
43099;DHT22;28715;51.988;6.020;2022-09-09T00:43:38;17.20;99.80
43099;DHT22;28715;51.988;6.020;2022-09-09T00:51:31;17.20;99.80
43099;DHT22;28715;51.988;6.020;2022-09-09T00:59:45;17.20;99.70
43099;DHT22;28715;51.988;6.020;2022-09-09T01:06:00;17.20;99.80
43099;DHT22;28715;51.988;6.020;2022-09-09T01:10:50;17.20;99.70
43099;DHT22;28715;51.988;6.020;2022-09-09T01:13:34;17.20;99.40
43099;DHT22;28715;51.988;6.020;2022-09-09T01:16:03;17.20;99.40
43099;DHT22;28715;51.988;6.020;2022-09-09T01:18:51;17.20;99.50
43099;DHT22;28715;51.988;6.020;2022-09-09T01:27:08;17.10;99.30
43099;DHT22;28715;51.988;6.020;2022-09-09T01:29:45;17.10;99.30
43099;DHT22;28715;51.988;6.020;2022-09-09T01:38:27;16.90;98.90
43099;DHT22;28715;51.988;6.020;2022-09-09T01:41:03;16.90;99.00
43099;DHT22;28715;51.988;6.020;2022-09-09T01:43:36;16.80;98.80
43099;DHT22;28715;51.988;6.020;2022-09-09T01:46:02;16.70;98.70
43099;DHT22;28715;51.988;6.020;2022-09-09T01:48:41;16.70;98.90
43099;DHT22;28715;51.988;6.020;2022-09-09T01:51:12;16.60;99.20
43099;DHT22;28715;51.988;6.020;2022-09-09T01:53:46;16.50;99.30
43099;DHT22;28715;51.988;6.020;2022-09-09T02:05:01;16.40;99.30
43099;DHT22;28715;51.988;6.020;2022-09-09T02:07:55;16.40;99.20
43099;DHT22;28715;51.988;6.020;2022-09-09T02:10:59;16.40;99.20
43099;DHT22;28715;51.988;6.020;2022-09-09T02:13:29;16.40;99.30
43099;DHT22;28715;51.988;6.020;2022-09-09T02:16:30;16.40;99.30
43099;DHT22;28715;51.988;6.020;2022-09-09T02:19:20;16.40;99.10
43099;DHT22;28715;51.988;6.020;2022-09-09T02:22:13;16.30;99.30
43099;DHT22;28715;51.988;6.020;2022-09-09T02:24:49;16.30;99.40
43099;DHT22;28715;51.988;6.020;2022-09-09T02:27:20;16.30;99.40
43099;DHT22;28715;51.988;6.020;2022-09-09T02:29:58;16.30;99.40
43099;DHT22;28715;51.988;6.020;2022-09-09T02:32:29;16.20;99.40
43099;DHT22;28715;51.988;6.020;2022-09-09T02:35:16;16.20;99.40
43099;DHT22;28715;51.988;6.020;2022-09-09T02:37:45;16.20;99.80
43099;DHT22;28715;51.988;6.020;2022-09-09T02:40:15;16.20;99.40
43099;DHT22;28715;51.988;6.020;2022-09-09T02:42:46;16.20;99.50
43099;DHT22;28715;51.988;6.020;2022-09-09T02:45:18;16.10;99.50
43099;DHT22;28715;51.988;6.020;2022-09-09T02:53:18;16.10;99.60
43099;DHT22;28715;51.988;6.020;2022-09-09T02:56:04;16.00;99.60
43099;DHT22;28715;51.988;6.020;2022-09-09T02:58:43;15.90;99.60
43099;DHT22;28715;51.988;6.020;2022-09-09T03:01:15;15.90;99.60
43099;DHT22;28715;51.988;6.020;2022-09-09T03:03:49;15.70;99.60
43099;DHT22;28715;51.988;6.020;2022-09-09T03:06:44;15.70;99.90
43099;DHT22;28715;51.988;6.020;2022-09-09T03:12:30;15.70;99.90
43099;DHT22;28715;51.988;6.020;2022-09-09T03:15:03;15.80;99.90
43099;DHT22;28715;51.988;6.020;2022-09-09T03:17:29;15.80;99.90
43099;DHT22;28715;51.988;6.020;2022-09-09T03:20:01;15.70;99.90
43099;DHT22;28715;51.988;6.020;2022-09-09T03:22:30;15.70;99.90
43099;DHT22;28715;51.988;6.020;2022-09-09T03:25:13;15.70;99.90
43099;DHT22;28715;51.988;6.020;2022-09-09T03:27:59;15.70;99.90
43099;DHT22;28715;51.988;6.020;2022-09-09T03:30:33;15.70;99.90
43099;DHT22;28715;51.988;6.020;2022-09-09T03:33:07;15.70;99.90
43099;DHT22;28715;51.988;6.020;2022-09-09T03:36:09;15.70;99.90
43099;DHT22;28715;51.988;6.020;2022-09-09T03:38:53;15.70;99.90
43099;DHT22;28715;51.988;6.020;2022-09-09T03:41:39;15.70;99.90
43099;DHT22;28715;51.988;6.020;2022-09-09T03:44:44;15.70;99.90
43099;DHT22;28715;51.988;6.020;2022-09-09T03:47:20;15.70;99.90
43099;DHT22;28715;51.988;6.020;2022-09-09T03:56:02;15.70;99.90
43099;DHT22;28715;51.988;6.020;2022-09-09T03:58:57;15.70;99.90
43099;DHT22;28715;51.988;6.020;2022-09-09T04:01:36;15.70;99.90
43099;DHT22;28715;51.988;6.020;2022-09-09T04:04:18;15.60;99.90
43099;DHT22;28715;51.988;6.020;2022-09-09T04:06:50;15.60;99.90
43099;DHT22;28715;51.988;6.020;2022-09-09T04:09:36;15.50;99.90
43099;DHT22;28715;51.988;6.020;2022-09-09T04:12:12;15.50;99.90
43099;DHT22;28715;51.988;6.020;2022-09-09T04:14:49;15.60;99.90
43099;DHT22;28715;51.988;6.020;2022-09-09T04:17:54;15.60;99.90
43099;DHT22;28715;51.988;6.020;2022-09-09T04:20:19;15.60;99.90
43099;DHT22;28715;51.988;6.020;2022-09-09T04:22:45;15.70;99.90
43099;DHT22;28715;51.988;6.020;2022-09-09T04:25:19;15.70;99.90
43099;DHT22;28715;51.988;6.020;2022-09-09T04:27:45;15.80;99.90
43099;DHT22;28715;51.988;6.020;2022-09-09T04:30:11;15.80;99.90
43099;DHT22;28715;51.988;6.020;2022-09-09T04:32:39;15.80;99.90
43099;DHT22;28715;51.988;6.020;2022-09-09T04:35:06;15.90;99.90
43099;DHT22;28715;51.988;6.020;2022-09-09T04:37:32;15.90;99.90
43099;DHT22;28715;51.988;6.020;2022-09-09T04:39:58;16.00;99.90
43099;DHT22;28715;51.988;6.020;2022-09-09T04:42:24;16.00;99.90
43099;DHT22;28715;51.988;6.020;2022-09-09T04:44:53;16.00;99.90
43099;DHT22;28715;51.988;6.020;2022-09-09T04:47:21;16.10;99.90
43099;DHT22;28715;51.988;6.020;2022-09-09T04:49:47;16.10;99.90
43099;DHT22;28715;51.988;6.020;2022-09-09T04:52:15;16.20;99.90
43099;DHT22;28715;51.988;6.020;2022-09-09T04:54:43;16.20;99.90
43099;DHT22;28715;51.988;6.020;2022-09-09T04:57:12;16.20;99.90
43099;DHT22;28715;51.988;6.020;2022-09-09T04:59:43;16.30;99.90
43099;DHT22;28715;51.988;6.020;2022-09-09T05:02:09;16.30;99.90
43099;DHT22;28715;51.988;6.020;2022-09-09T05:04:40;16.30;99.90
43099;DHT22;28715;51.988;6.020;2022-09-09T05:07:09;16.30;99.90
43099;DHT22;28715;51.988;6.020;2022-09-09T05:09:35;16.30;99.90
43099;DHT22;28715;51.988;6.020;2022-09-09T05:12:01;16.30;99.90
43099;DHT22;28715;51.988;6.020;2022-09-09T05:14:28;16.40;99.90
43099;DHT22;28715;51.988;6.020;2022-09-09T05:16:54;16.40;99.90
43099;DHT22;28715;51.988;6.020;2022-09-09T05:19:21;16.40;99.90
43099;DHT22;28715;51.988;6.020;2022-09-09T05:21:47;16.50;99.90
43099;DHT22;28715;51.988;6.020;2022-09-09T05:24:12;16.50;99.90
43099;DHT22;28715;51.988;6.020;2022-09-09T05:26:40;16.50;99.90
43099;DHT22;28715;51.988;6.020;2022-09-09T05:29:28;16.50;99.90
43099;DHT22;28715;51.988;6.020;2022-09-09T05:31:54;16.50;99.90
43099;DHT22;28715;51.988;6.020;2022-09-09T05:34:22;16.60;99.90
43099;DHT22;28715;51.988;6.020;2022-09-09T05:36:53;16.60;99.90
43099;DHT22;28715;51.988;6.020;2022-09-09T05:39:27;16.60;99.90
43099;DHT22;28715;51.988;6.020;2022-09-09T05:41:53;16.70;99.90
43099;DHT22;28715;51.988;6.020;2022-09-09T05:44:21;16.70;99.90
43099;DHT22;28715;51.988;6.020;2022-09-09T05:46:51;16.70;99.90
43099;DHT22;28715;51.988;6.020;2022-09-09T05:49:34;16.80;99.90
43099;DHT22;28715;51.988;6.020;2022-09-09T05:52:00;16.80;99.90
43099;DHT22;28715;51.988;6.020;2022-09-09T05:54:26;16.80;99.90
43099;DHT22;28715;51.988;6.020;2022-09-09T05:56:51;16.80;99.90
43099;DHT22;28715;51.988;6.020;2022-09-09T05:59:19;16.80;99.90
43099;DHT22;28715;51.988;6.020;2022-09-09T06:01:44;16.90;99.90
43099;DHT22;28715;51.988;6.020;2022-09-09T06:04:10;16.80;99.90
43099;DHT22;28715;51.988;6.020;2022-09-09T06:06:37;16.80;99.90
43099;DHT22;28715;51.988;6.020;2022-09-09T06:09:06;16.80;99.90
43099;DHT22;28715;51.988;6.020;2022-09-09T06:11:35;16.90;99.90
43099;DHT22;28715;51.988;6.020;2022-09-09T06:14:01;16.90;99.90
43099;DHT22;28715;51.988;6.020;2022-09-09T06:16:28;16.90;99.90
43099;DHT22;28715;51.988;6.020;2022-09-09T06:18:55;16.90;99.90
43099;DHT22;28715;51.988;6.020;2022-09-09T06:21:26;17.00;99.90
43099;DHT22;28715;51.988;6.020;2022-09-09T06:23:52;17.00;99.90
43099;DHT22;28715;51.988;6.020;2022-09-09T06:28:53;17.20;99.90
43099;DHT22;28715;51.988;6.020;2022-09-09T06:31:24;17.20;99.90
43099;DHT22;28715;51.988;6.020;2022-09-09T06:33:51;17.30;99.90
43099;DHT22;28715;51.988;6.020;2022-09-09T06:36:28;17.30;99.90
43099;DHT22;28715;51.988;6.020;2022-09-09T06:38:54;17.30;99.90
43099;DHT22;28715;51.988;6.020;2022-09-09T06:41:23;17.40;99.90
43099;DHT22;28715;51.988;6.020;2022-09-09T06:43:49;17.40;99.90
43099;DHT22;28715;51.988;6.020;2022-09-09T06:46:25;17.50;99.90
43099;DHT22;28715;51.988;6.020;2022-09-09T06:48:56;17.50;99.90
43099;DHT22;28715;51.988;6.020;2022-09-09T06:51:32;17.70;99.90
43099;DHT22;28715;51.988;6.020;2022-09-09T06:54:00;17.70;99.90
43099;DHT22;28715;51.988;6.020;2022-09-09T06:56:32;17.60;99.90
43099;DHT22;28715;51.988;6.020;2022-09-09T06:59:00;17.70;99.90
43099;DHT22;28715;51.988;6.020;2022-09-09T07:01:39;17.70;99.90
43099;DHT22;28715;51.988;6.020;2022-09-09T07:04:06;17.80;99.90
43099;DHT22;28715;51.988;6.020;2022-09-09T07:06:36;17.90;99.90
43099;DHT22;28715;51.988;6.020;2022-09-09T07:09:07;17.90;99.90
43099;DHT22;28715;51.988;6.020;2022-09-09T07:11:40;18.00;99.70
43099;DHT22;28715;51.988;6.020;2022-09-09T07:14:07;18.10;99.70
43099;DHT22;28715;51.988;6.020;2022-09-09T07:16:33;18.20;99.50
43099;DHT22;28715;51.988;6.020;2022-09-09T07:19:05;18.20;99.50
43099;DHT22;28715;51.988;6.020;2022-09-09T07:21:32;18.30;99.20
43099;DHT22;28715;51.988;6.020;2022-09-09T07:23:58;18.40;99.10
43099;DHT22;28715;51.988;6.020;2022-09-09T07:26:28;18.40;99.00
43099;DHT22;28715;51.988;6.020;2022-09-09T07:28:54;18.50;98.90
43099;DHT22;28715;51.988;6.020;2022-09-09T07:31:24;18.40;98.40
43099;DHT22;28715;51.988;6.020;2022-09-09T07:33:53;18.50;98.30
43099;DHT22;28715;51.988;6.020;2022-09-09T07:36:25;18.60;98.30
43099;DHT22;28715;51.988;6.020;2022-09-09T07:39:06;18.70;98.40
43099;DHT22;28715;51.988;6.020;2022-09-09T07:41:42;18.70;97.90
43099;DHT22;28715;51.988;6.020;2022-09-09T07:44:14;18.60;97.80
43099;DHT22;28715;51.988;6.020;2022-09-09T07:46:40;18.60;97.80
43099;DHT22;28715;51.988;6.020;2022-09-09T07:49:07;18.60;98.10
43099;DHT22;28715;51.988;6.020;2022-09-09T07:51:35;18.60;97.90
43099;DHT22;28715;51.988;6.020;2022-09-09T07:54:06;18.70;97.80
43099;DHT22;28715;51.988;6.020;2022-09-09T07:56:33;18.70;97.70
43099;DHT22;28715;51.988;6.020;2022-09-09T07:59:02;18.90;98.10
43099;DHT22;28715;51.988;6.020;2022-09-09T08:01:52;19.20;97.70
43099;DHT22;28715;51.988;6.020;2022-09-09T08:04:23;19.20;96.40
43099;DHT22;28715;51.988;6.020;2022-09-09T08:06:59;19.10;96.40
43099;DHT22;28715;51.988;6.020;2022-09-09T08:09:26;19.10;96.70
43099;DHT22;28715;51.988;6.020;2022-09-09T08:11:54;19.20;96.90
43099;DHT22;28715;51.988;6.020;2022-09-09T08:14:22;19.30;96.30
43099;DHT22;28715;51.988;6.020;2022-09-09T08:16:49;19.30;96.20
43099;DHT22;28715;51.988;6.020;2022-09-09T08:19:15;19.30;96.00
43099;DHT22;28715;51.988;6.020;2022-09-09T08:21:41;19.30;96.10
43099;DHT22;28715;51.988;6.020;2022-09-09T08:24:09;19.20;96.10
43099;DHT22;28715;51.988;6.020;2022-09-09T08:26:47;19.20;96.00
43099;DHT22;28715;51.988;6.020;2022-09-09T08:29:14;19.20;96.30
43099;DHT22;28715;51.988;6.020;2022-09-09T08:34:15;19.10;96.00
43099;DHT22;28715;51.988;6.020;2022-09-09T08:36:43;19.10;95.80
43099;DHT22;28715;51.988;6.020;2022-09-09T08:39:11;19.00;95.60
43099;DHT22;28715;51.988;6.020;2022-09-09T08:47:23;19.10;96.20
43099;DHT22;28715;51.988;6.020;2022-09-09T08:52:39;19.20;95.50
43099;DHT22;28715;51.988;6.020;2022-09-09T08:57:48;19.20;95.20
43099;DHT22;28715;51.988;6.020;2022-09-09T09:00:14;19.20;95.30
43099;DHT22;28715;51.988;6.020;2022-09-09T09:05:50;19.10;95.30
43099;DHT22;28715;51.988;6.020;2022-09-09T09:10:53;19.10;95.70
43099;DHT22;28715;51.988;6.020;2022-09-09T09:13:24;19.10;95.40
43099;DHT22;28715;51.988;6.020;2022-09-09T09:16:00;19.20;95.40
43099;DHT22;28715;51.988;6.020;2022-09-09T09:18:27;19.20;95.30
43099;DHT22;28715;51.988;6.020;2022-09-09T09:21:12;19.20;95.40
43099;DHT22;28715;51.988;6.020;2022-09-09T09:23:50;19.20;94.80
43099;DHT22;28715;51.988;6.020;2022-09-09T09:26:19;19.30;94.70
43099;DHT22;28715;51.988;6.020;2022-09-09T09:28:47;19.40;94.70
43099;DHT22;28715;51.988;6.020;2022-09-09T09:31:13;19.60;94.70
43099;DHT22;28715;51.988;6.020;2022-09-09T09:36:14;19.70;94.00
43099;DHT22;28715;51.988;6.020;2022-09-09T09:38:57;19.70;94.00
43099;DHT22;28715;51.988;6.020;2022-09-09T09:41:36;19.80;93.90
43099;DHT22;28715;51.988;6.020;2022-09-09T09:44:05;19.70;93.60
43099;DHT22;28715;51.988;6.020;2022-09-09T09:46:32;19.70;94.00
43099;DHT22;28715;51.988;6.020;2022-09-09T09:49:02;19.70;94.00
43099;DHT22;28715;51.988;6.020;2022-09-09T09:51:30;19.70;94.20
43099;DHT22;28715;51.988;6.020;2022-09-09T09:56:41;19.90;93.80
43099;DHT22;28715;51.988;6.020;2022-09-09T09:59:32;19.90;93.50
43099;DHT22;28715;51.988;6.020;2022-09-09T10:02:24;20.00;93.90
43099;DHT22;28715;51.988;6.020;2022-09-09T10:07:39;20.00;93.20
43099;DHT22;28715;51.988;6.020;2022-09-09T10:10:07;20.10;93.10
43099;DHT22;28715;51.988;6.020;2022-09-09T10:15:58;20.10;92.90
43099;DHT22;28715;51.988;6.020;2022-09-09T10:18:42;20.00;92.80
43099;DHT22;28715;51.988;6.020;2022-09-09T10:27:25;19.70;93.10
43099;DHT22;28715;51.988;6.020;2022-09-09T10:35:52;19.50;94.10
43099;DHT22;28715;51.988;6.020;2022-09-09T10:38:40;19.40;94.00
43099;DHT22;28715;51.988;6.020;2022-09-09T10:41:19;19.40;94.30
43099;DHT22;28715;51.988;6.020;2022-09-09T10:43:56;19.50;94.20
43099;DHT22;28715;51.988;6.020;2022-09-09T10:51:59;19.50;93.70
43099;DHT22;28715;51.988;6.020;2022-09-09T10:55:28;19.50;93.80
43099;DHT22;28715;51.988;6.020;2022-09-09T10:57:35;19.60;93.60
43099;DHT22;28715;51.988;6.020;2022-09-09T11:00:45;19.50;93.40
43099;DHT22;28715;51.988;6.020;2022-09-09T11:03:23;19.40;93.80
43099;DHT22;28715;51.988;6.020;2022-09-09T11:06:14;19.50;93.80
43099;DHT22;28715;51.988;6.020;2022-09-09T11:08:42;19.60;94.60
43099;DHT22;28715;51.988;6.020;2022-09-09T11:11:16;19.70;94.20
43099;DHT22;28715;51.988;6.020;2022-09-09T11:13:57;19.80;93.70
43099;DHT22;28715;51.988;6.020;2022-09-09T11:16:51;19.90;93.50
43099;DHT22;28715;51.988;6.020;2022-09-09T11:22:30;20.00;93.30
43099;DHT22;28715;51.988;6.020;2022-09-09T11:25:00;19.90;93.00
43099;DHT22;28715;51.988;6.020;2022-09-09T11:27:36;19.90;93.20
43099;DHT22;28715;51.988;6.020;2022-09-09T11:30:22;19.90;93.20
43099;DHT22;28715;51.988;6.020;2022-09-09T11:38:19;19.70;94.90
43099;DHT22;28715;51.988;6.020;2022-09-09T11:40:45;19.80;94.80
43099;DHT22;28715;51.988;6.020;2022-09-09T11:43:21;19.80;94.40
43099;DHT22;28715;51.988;6.020;2022-09-09T11:45:54;19.90;94.60
43099;DHT22;28715;51.988;6.020;2022-09-09T11:48:35;19.80;95.20
43099;DHT22;28715;51.988;6.020;2022-09-09T11:51:11;19.70;95.80
43099;DHT22;28715;51.988;6.020;2022-09-09T11:56:42;19.50;96.50
43099;DHT22;28715;51.988;6.020;2022-09-09T11:59:27;19.50;97.00
43099;DHT22;28715;51.988;6.020;2022-09-09T12:04:33;19.90;97.10
43099;DHT22;28715;51.988;6.020;2022-09-09T12:07:21;20.00;95.80
43099;DHT22;28715;51.988;6.020;2022-09-09T12:10:01;19.90;96.10
43099;DHT22;28715;51.988;6.020;2022-09-09T12:12:37;19.90;96.30
43099;DHT22;28715;51.988;6.020;2022-09-09T12:20:19;19.70;96.90
43099;DHT22;28715;51.988;6.020;2022-09-09T12:23:26;19.70;96.50
43099;DHT22;28715;51.988;6.020;2022-09-09T12:31:39;19.70;97.00
43099;DHT22;28715;51.988;6.020;2022-09-09T12:34:15;19.70;96.90
43099;DHT22;28715;51.988;6.020;2022-09-09T12:36:42;19.70;96.80
43099;DHT22;28715;51.988;6.020;2022-09-09T12:39:19;19.60;96.50
43099;DHT22;28715;51.988;6.020;2022-09-09T12:41:53;19.60;96.90
43099;DHT22;28715;51.988;6.020;2022-09-09T12:44:24;19.70;96.90
43099;DHT22;28715;51.988;6.020;2022-09-09T12:46:51;19.80;96.60
43099;DHT22;28715;51.988;6.020;2022-09-09T12:49:34;19.90;96.10
43099;DHT22;28715;51.988;6.020;2022-09-09T12:52:31;20.00;96.40
43099;DHT22;28715;51.988;6.020;2022-09-09T12:55:00;20.00;95.80
43099;DHT22;28715;51.988;6.020;2022-09-09T12:57:33;20.00;96.10
43099;DHT22;28715;51.988;6.020;2022-09-09T13:00:11;20.20;95.60
43099;DHT22;28715;51.988;6.020;2022-09-09T13:02:53;20.30;95.40
43099;DHT22;28715;51.988;6.020;2022-09-09T13:05:22;20.40;95.30
43099;DHT22;28715;51.988;6.020;2022-09-09T13:07:48;20.40;95.10
43099;DHT22;28715;51.988;6.020;2022-09-09T13:10:19;20.40;95.10
43099;DHT22;28715;51.988;6.020;2022-09-09T13:12:46;20.40;95.00
43099;DHT22;28715;51.988;6.020;2022-09-09T13:15:20;20.40;95.00
43099;DHT22;28715;51.988;6.020;2022-09-09T13:17:57;20.30;94.90
43099;DHT22;28715;51.988;6.020;2022-09-09T13:20:24;20.20;95.50
43099;DHT22;28715;51.988;6.020;2022-09-09T13:22:50;20.10;95.70
43099;DHT22;28715;51.988;6.020;2022-09-09T13:25:27;20.20;96.00
43099;DHT22;28715;51.988;6.020;2022-09-09T13:30:34;20.60;95.80
43099;DHT22;28715;51.988;6.020;2022-09-09T13:35:49;20.80;94.60
43099;DHT22;28715;51.988;6.020;2022-09-09T13:38:16;20.80;94.20
43099;DHT22;28715;51.988;6.020;2022-09-09T13:40:52;20.70;94.50
43099;DHT22;28715;51.988;6.020;2022-09-09T13:43:22;20.70;94.90
43099;DHT22;28715;51.988;6.020;2022-09-09T13:45:55;20.60;94.60
43099;DHT22;28715;51.988;6.020;2022-09-09T13:48:22;20.60;94.60
43099;DHT22;28715;51.988;6.020;2022-09-09T13:51:02;20.50;94.80
43099;DHT22;28715;51.988;6.020;2022-09-09T13:53:30;20.50;95.00
43099;DHT22;28715;51.988;6.020;2022-09-09T13:55:56;20.60;94.90
43099;DHT22;28715;51.988;6.020;2022-09-09T13:58:23;20.70;94.90
43099;DHT22;28715;51.988;6.020;2022-09-09T14:00:50;20.70;94.20
43099;DHT22;28715;51.988;6.020;2022-09-09T14:03:16;20.70;94.30
43099;DHT22;28715;51.988;6.020;2022-09-09T14:05:41;20.50;94.10
43099;DHT22;28715;51.988;6.020;2022-09-09T14:08:20;20.40;94.10
43099;DHT22;28715;51.988;6.020;2022-09-09T14:10:46;20.20;94.50
43099;DHT22;28715;51.988;6.020;2022-09-09T14:13:12;20.20;94.70
43099;DHT22;28715;51.988;6.020;2022-09-09T14:15:38;20.10;94.90
43099;DHT22;28715;51.988;6.020;2022-09-09T14:18:04;20.20;95.00
43099;DHT22;28715;51.988;6.020;2022-09-09T14:20:29;20.20;95.20
43099;DHT22;28715;51.988;6.020;2022-09-09T14:22:55;20.30;95.40
43099;DHT22;28715;51.988;6.020;2022-09-09T14:25:21;20.40;95.20
43099;DHT22;28715;51.988;6.020;2022-09-09T14:27:47;20.50;95.10
43099;DHT22;28715;51.988;6.020;2022-09-09T14:30:12;20.50;95.00
43099;DHT22;28715;51.988;6.020;2022-09-09T14:32:38;20.50;95.00
43099;DHT22;28715;51.988;6.020;2022-09-09T14:35:04;20.60;95.00
43099;DHT22;28715;51.988;6.020;2022-09-09T14:37:29;20.50;95.00
43099;DHT22;28715;51.988;6.020;2022-09-09T14:39:56;20.50;95.20
43099;DHT22;28715;51.988;6.020;2022-09-09T14:42:22;20.50;95.20
43099;DHT22;28715;51.988;6.020;2022-09-09T14:44:48;20.40;95.00
43099;DHT22;28715;51.988;6.020;2022-09-09T14:47:14;20.40;95.30
43099;DHT22;28715;51.988;6.020;2022-09-09T14:49:40;20.40;95.10
43099;DHT22;28715;51.988;6.020;2022-09-09T14:52:05;20.40;95.10
43099;DHT22;28715;51.988;6.020;2022-09-09T14:54:31;20.40;94.80
43099;DHT22;28715;51.988;6.020;2022-09-09T14:56:57;20.40;95.00
43099;DHT22;28715;51.988;6.020;2022-09-09T14:59:23;20.40;95.00
43099;DHT22;28715;51.988;6.020;2022-09-09T15:01:49;20.40;95.10
43099;DHT22;28715;51.988;6.020;2022-09-09T15:04:14;20.50;95.00
43099;DHT22;28715;51.988;6.020;2022-09-09T15:06:40;20.50;95.10
43099;DHT22;28715;51.988;6.020;2022-09-09T15:09:08;20.50;95.20
43099;DHT22;28715;51.988;6.020;2022-09-09T15:11:36;20.60;95.00
43099;DHT22;28715;51.988;6.020;2022-09-09T15:21:27;20.80;94.90
43099;DHT22;28715;51.988;6.020;2022-09-09T15:23:54;20.80;94.50
43099;DHT22;28715;51.988;6.020;2022-09-09T15:26:20;20.90;94.70
43099;DHT22;28715;51.988;6.020;2022-09-09T15:28:47;20.90;94.90
43099;DHT22;28715;51.988;6.020;2022-09-09T15:31:15;20.90;94.60
43099;DHT22;28715;51.988;6.020;2022-09-09T15:33:47;20.90;94.40
43099;DHT22;28715;51.988;6.020;2022-09-09T15:38:46;20.90;94.30
43099;DHT22;28715;51.988;6.020;2022-09-09T15:41:13;20.90;94.40
43099;DHT22;28715;51.988;6.020;2022-09-09T15:43:42;20.90;93.80
43099;DHT22;28715;51.988;6.020;2022-09-09T15:48:44;20.70;93.60
43099;DHT22;28715;51.988;6.020;2022-09-09T15:51:10;20.80;93.70
43099;DHT22;28715;51.988;6.020;2022-09-09T15:53:37;20.70;93.90
43099;DHT22;28715;51.988;6.020;2022-09-09T15:56:07;20.70;94.00
43099;DHT22;28715;51.988;6.020;2022-09-09T15:58:34;20.60;94.00
43099;DHT22;28715;51.988;6.020;2022-09-09T16:01:10;20.60;94.20
43099;DHT22;28715;51.988;6.020;2022-09-09T16:03:42;20.70;94.00
43099;DHT22;28715;51.988;6.020;2022-09-09T16:06:09;20.60;93.80
43099;DHT22;28715;51.988;6.020;2022-09-09T16:08:40;20.60;93.90
43099;DHT22;28715;51.988;6.020;2022-09-09T16:11:27;20.60;94.20
43099;DHT22;28715;51.988;6.020;2022-09-09T16:13:54;20.60;93.90
43099;DHT22;28715;51.988;6.020;2022-09-09T16:16:22;20.50;93.90
43099;DHT22;28715;51.988;6.020;2022-09-09T16:18:54;20.60;94.00
43099;DHT22;28715;51.988;6.020;2022-09-09T16:21:31;20.50;94.00
43099;DHT22;28715;51.988;6.020;2022-09-09T16:23:58;20.50;94.50
43099;DHT22;28715;51.988;6.020;2022-09-09T16:26:25;20.40;93.60
43099;DHT22;28715;51.988;6.020;2022-09-09T16:28:51;20.20;94.00
43099;DHT22;28715;51.988;6.020;2022-09-09T16:31:19;20.00;94.60
43099;DHT22;28715;51.988;6.020;2022-09-09T16:33:45;19.70;95.20
43099;DHT22;28715;51.988;6.020;2022-09-09T16:36:25;19.60;95.70
43099;DHT22;28715;51.988;6.020;2022-09-09T16:38:53;19.60;96.00
43099;DHT22;28715;51.988;6.020;2022-09-09T16:41:20;19.60;96.20
43099;DHT22;28715;51.988;6.020;2022-09-09T16:43:46;19.60;96.20
43099;DHT22;28715;51.988;6.020;2022-09-09T16:46:17;19.60;96.30
43099;DHT22;28715;51.988;6.020;2022-09-09T16:48:44;19.60;96.50
43099;DHT22;28715;51.988;6.020;2022-09-09T16:53:43;19.50;96.40
43099;DHT22;28715;51.988;6.020;2022-09-09T16:56:17;19.50;96.30
43099;DHT22;28715;51.988;6.020;2022-09-09T16:58:49;19.50;95.80
43099;DHT22;28715;51.988;6.020;2022-09-09T17:01:15;19.40;95.70
43099;DHT22;28715;51.988;6.020;2022-09-09T17:03:41;19.30;95.80
43099;DHT22;28715;51.988;6.020;2022-09-09T17:06:15;19.20;95.90
43099;DHT22;28715;51.988;6.020;2022-09-09T17:08:41;19.10;96.10
43099;DHT22;28715;51.988;6.020;2022-09-09T17:11:15;19.10;96.20
43099;DHT22;28715;51.988;6.020;2022-09-09T17:13:42;19.00;96.40
43099;DHT22;28715;51.988;6.020;2022-09-09T17:16:08;19.10;96.60
43099;DHT22;28715;51.988;6.020;2022-09-09T17:18:34;19.10;96.70
43099;DHT22;28715;51.988;6.020;2022-09-09T17:21:14;19.10;96.60
43099;DHT22;28715;51.988;6.020;2022-09-09T17:23:42;19.00;97.00
43099;DHT22;28715;51.988;6.020;2022-09-09T17:26:13;19.00;97.30
43099;DHT22;28715;51.988;6.020;2022-09-09T17:28:41;19.00;97.60
43099;DHT22;28715;51.988;6.020;2022-09-09T17:31:09;19.00;97.60
43099;DHT22;28715;51.988;6.020;2022-09-09T17:33:39;19.00;97.50
43099;DHT22;28715;51.988;6.020;2022-09-09T17:36:13;19.00;97.50
43099;DHT22;28715;51.988;6.020;2022-09-09T17:38:39;19.00;97.30
43099;DHT22;28715;51.988;6.020;2022-09-09T17:41:10;18.90;97.50
43099;DHT22;28715;51.988;6.020;2022-09-09T17:43:37;18.90;97.60
43099;DHT22;28715;51.988;6.020;2022-09-09T17:46:07;18.90;97.70
43099;DHT22;28715;51.988;6.020;2022-09-09T17:48:33;18.80;97.70
43099;DHT22;28715;51.988;6.020;2022-09-09T17:51:00;18.80;97.80
43099;DHT22;28715;51.988;6.020;2022-09-09T17:53:25;18.70;97.70
43099;DHT22;28715;51.988;6.020;2022-09-09T17:55:51;18.70;97.60
43099;DHT22;28715;51.988;6.020;2022-09-09T17:58:17;18.70;97.80
43099;DHT22;28715;51.988;6.020;2022-09-09T18:00:42;18.70;97.90
43099;DHT22;28715;51.988;6.020;2022-09-09T18:03:08;18.60;98.00
43099;DHT22;28715;51.988;6.020;2022-09-09T18:05:34;18.60;98.00
43099;DHT22;28715;51.988;6.020;2022-09-09T18:07:59;18.60;98.10
43099;DHT22;28715;51.988;6.020;2022-09-09T18:10:25;18.60;98.10
43099;DHT22;28715;51.988;6.020;2022-09-09T18:12:51;18.50;98.00
43099;DHT22;28715;51.988;6.020;2022-09-09T18:15:17;18.40;98.10
43099;DHT22;28715;51.988;6.020;2022-09-09T18:17:42;18.40;97.90
43099;DHT22;28715;51.988;6.020;2022-09-09T18:20:08;18.30;98.00
43099;DHT22;28715;51.988;6.020;2022-09-09T18:22:35;18.30;98.10
43099;DHT22;28715;51.988;6.020;2022-09-09T18:25:00;18.30;98.00
43099;DHT22;28715;51.988;6.020;2022-09-09T18:27:26;18.30;98.00
43099;DHT22;28715;51.988;6.020;2022-09-09T18:29:53;18.30;98.00
43099;DHT22;28715;51.988;6.020;2022-09-09T18:32:18;18.20;98.20
43099;DHT22;28715;51.988;6.020;2022-09-09T18:34:44;18.20;98.20
43099;DHT22;28715;51.988;6.020;2022-09-09T18:37:10;18.20;98.20
43099;DHT22;28715;51.988;6.020;2022-09-09T18:39:35;18.20;98.20
43099;DHT22;28715;51.988;6.020;2022-09-09T18:42:01;18.10;98.30